sensor_id;sensor_type;location;lat;lon;timestamp;temperature;humidity
35111;DHT22;21290;50.158;8.658;2023-09-07T00:02:05;18.40;99.90
35111;DHT22;21290;50.158;8.658;2023-09-07T00:04:32;18.40;99.90
35111;DHT22;21290;50.158;8.658;2023-09-07T00:06:59;18.50;99.90
35111;DHT22;21290;50.158;8.658;2023-09-07T00:09:27;18.50;99.90
35111;DHT22;21290;50.158;8.658;2023-09-07T00:11:54;18.40;99.90
35111;DHT22;21290;50.158;8.658;2023-09-07T00:14:20;18.50;99.90
35111;DHT22;21290;50.158;8.658;2023-09-07T00:16:47;18.40;99.90
35111;DHT22;21290;50.158;8.658;2023-09-07T00:19:14;18.30;99.90
35111;DHT22;21290;50.158;8.658;2023-09-07T00:21:41;18.20;99.90
35111;DHT22;21290;50.158;8.658;2023-09-07T00:24:08;18.10;99.90
35111;DHT22;21290;50.158;8.658;2023-09-07T00:26:34;18.10;99.90
35111;DHT22;21290;50.158;8.658;2023-09-07T00:29:01;18.10;99.90
35111;DHT22;21290;50.158;8.658;2023-09-07T00:31:28;18.10;99.90
35111;DHT22;21290;50.158;8.658;2023-09-07T00:33:55;18.10;99.90
35111;DHT22;21290;50.158;8.658;2023-09-07T00:36:21;18.00;99.90
35111;DHT22;21290;50.158;8.658;2023-09-07T00:38:48;18.10;99.90
35111;DHT22;21290;50.158;8.658;2023-09-07T00:41:14;18.20;99.90
35111;DHT22;21290;50.158;8.658;2023-09-07T00:43:41;18.20;99.90
35111;DHT22;21290;50.158;8.658;2023-09-07T00:46:08;18.30;99.90
35111;DHT22;21290;50.158;8.658;2023-09-07T00:48:35;18.20;99.90
35111;DHT22;21290;50.158;8.658;2023-09-07T00:51:02;18.20;99.90
35111;DHT22;21290;50.158;8.658;2023-09-07T00:53:29;18.20;99.90
35111;DHT22;21290;50.158;8.658;2023-09-07T00:55:56;18.20;99.90
35111;DHT22;21290;50.158;8.658;2023-09-07T00:58:24;18.20;99.90
35111;DHT22;21290;50.158;8.658;2023-09-07T01:00:51;18.00;99.90
35111;DHT22;21290;50.158;8.658;2023-09-07T01:03:17;17.90;99.90
35111;DHT22;21290;50.158;8.658;2023-09-07T01:06:04;17.90;99.90
35111;DHT22;21290;50.158;8.658;2023-09-07T01:08:35;17.80;99.90
35111;DHT22;21290;50.158;8.658;2023-09-07T01:11:15;17.70;99.90
35111;DHT22;21290;50.158;8.658;2023-09-07T01:13:42;17.60;99.90
35111;DHT22;21290;50.158;8.658;2023-09-07T01:16:10;17.50;99.90
35111;DHT22;21290;50.158;8.658;2023-09-07T01:18:38;17.50;99.90
35111;DHT22;21290;50.158;8.658;2023-09-07T01:21:10;17.40;99.90
35111;DHT22;21290;50.158;8.658;2023-09-07T01:23:42;17.50;99.90
35111;DHT22;21290;50.158;8.658;2023-09-07T01:26:10;17.50;99.90
35111;DHT22;21290;50.158;8.658;2023-09-07T01:28:37;17.50;99.90
35111;DHT22;21290;50.158;8.658;2023-09-07T01:31:05;17.40;99.90
35111;DHT22;21290;50.158;8.658;2023-09-07T01:33:33;17.40;99.90
35111;DHT22;21290;50.158;8.658;2023-09-07T01:36:00;17.50;99.90
35111;DHT22;21290;50.158;8.658;2023-09-07T01:38:26;17.50;99.90
35111;DHT22;21290;50.158;8.658;2023-09-07T01:40:53;17.50;99.90
35111;DHT22;21290;50.158;8.658;2023-09-07T01:43:20;17.50;99.90
35111;DHT22;21290;50.158;8.658;2023-09-07T01:45:47;17.40;99.90
35111;DHT22;21290;50.158;8.658;2023-09-07T01:48:14;17.40;99.90
35111;DHT22;21290;50.158;8.658;2023-09-07T01:50:41;17.30;99.90
35111;DHT22;21290;50.158;8.658;2023-09-07T01:53:08;17.30;99.90
35111;DHT22;21290;50.158;8.658;2023-09-07T01:55:35;17.20;99.90
35111;DHT22;21290;50.158;8.658;2023-09-07T01:58:02;17.10;99.90
35111;DHT22;21290;50.158;8.658;2023-09-07T02:00:28;17.10;99.90
35111;DHT22;21290;50.158;8.658;2023-09-07T02:02:56;17.10;99.90
35111;DHT22;21290;50.158;8.658;2023-09-07T02:05:23;17.20;99.90
35111;DHT22;21290;50.158;8.658;2023-09-07T02:07:50;17.20;99.90
35111;DHT22;21290;50.158;8.658;2023-09-07T02:10:16;17.10;99.90
35111;DHT22;21290;50.158;8.658;2023-09-07T02:12:45;17.20;99.90
35111;DHT22;21290;50.158;8.658;2023-09-07T02:15:12;17.20;99.90
35111;DHT22;21290;50.158;8.658;2023-09-07T02:17:39;17.20;99.90
35111;DHT22;21290;50.158;8.658;2023-09-07T02:20:06;17.20;99.90
35111;DHT22;21290;50.158;8.658;2023-09-07T02:22:38;17.20;99.90
35111;DHT22;21290;50.158;8.658;2023-09-07T02:25:05;17.20;99.90
35111;DHT22;21290;50.158;8.658;2023-09-07T02:27:32;17.20;99.90
35111;DHT22;21290;50.158;8.658;2023-09-07T02:29:59;17.20;99.90
35111;DHT22;21290;50.158;8.658;2023-09-07T02:32:26;17.10;99.90
35111;DHT22;21290;50.158;8.658;2023-09-07T02:34:53;16.90;99.90
35111;DHT22;21290;50.158;8.658;2023-09-07T02:37:20;17.00;99.90
35111;DHT22;21290;50.158;8.658;2023-09-07T02:39:46;17.00;99.90
35111;DHT22;21290;50.158;8.658;2023-09-07T02:42:13;17.00;99.90
35111;DHT22;21290;50.158;8.658;2023-09-07T02:44:39;17.00;99.90
35111;DHT22;21290;50.158;8.658;2023-09-07T02:47:06;17.10;99.90
35111;DHT22;21290;50.158;8.658;2023-09-07T02:49:37;17.10;99.90
35111;DHT22;21290;50.158;8.658;2023-09-07T02:52:03;17.20;99.90
35111;DHT22;21290;50.158;8.658;2023-09-07T02:54:30;17.20;99.90
35111;DHT22;21290;50.158;8.658;2023-09-07T02:56:57;17.20;99.90
35111;DHT22;21290;50.158;8.658;2023-09-07T02:59:24;17.10;99.90
35111;DHT22;21290;50.158;8.658;2023-09-07T03:01:50;17.00;99.90
35111;DHT22;21290;50.158;8.658;2023-09-07T03:04:17;16.90;99.90
35111;DHT22;21290;50.158;8.658;2023-09-07T03:06:44;17.00;99.90
35111;DHT22;21290;50.158;8.658;2023-09-07T03:09:10;16.90;99.90
35111;DHT22;21290;50.158;8.658;2023-09-07T03:11:37;16.90;99.90
35111;DHT22;21290;50.158;8.658;2023-09-07T03:14:04;17.00;99.90
35111;DHT22;21290;50.158;8.658;2023-09-07T03:16:31;17.00;99.90
35111;DHT22;21290;50.158;8.658;2023-09-07T03:18:57;17.00;99.90
35111;DHT22;21290;50.158;8.658;2023-09-07T03:21:24;16.90;99.90
35111;DHT22;21290;50.158;8.658;2023-09-07T03:23:56;16.90;99.90
35111;DHT22;21290;50.158;8.658;2023-09-07T03:26:23;16.90;99.90
35111;DHT22;21290;50.158;8.658;2023-09-07T03:28:50;16.90;99.90
35111;DHT22;21290;50.158;8.658;2023-09-07T03:31:18;16.90;99.90
35111;DHT22;21290;50.158;8.658;2023-09-07T03:33:45;16.80;99.90
35111;DHT22;21290;50.158;8.658;2023-09-07T03:36:12;16.80;99.90
35111;DHT22;21290;50.158;8.658;2023-09-07T03:38:41;16.80;99.90
35111;DHT22;21290;50.158;8.658;2023-09-07T03:41:08;16.80;99.90
35111;DHT22;21290;50.158;8.658;2023-09-07T03:43:35;16.80;99.90
35111;DHT22;21290;50.158;8.658;2023-09-07T03:46:01;16.80;99.90
35111;DHT22;21290;50.158;8.658;2023-09-07T03:48:28;16.80;99.90
35111;DHT22;21290;50.158;8.658;2023-09-07T03:50:55;16.80;99.90
35111;DHT22;21290;50.158;8.658;2023-09-07T03:53:22;16.80;99.90
35111;DHT22;21290;50.158;8.658;2023-09-07T03:55:48;16.70;99.90
35111;DHT22;21290;50.158;8.658;2023-09-07T03:58:15;16.70;99.90
35111;DHT22;21290;50.158;8.658;2023-09-07T04:00:44;16.70;99.90
35111;DHT22;21290;50.158;8.658;2023-09-07T04:03:10;16.70;99.90
35111;DHT22;21290;50.158;8.658;2023-09-07T04:05:38;16.80;99.90
35111;DHT22;21290;50.158;8.658;2023-09-07T04:08:06;16.80;99.90
35111;DHT22;21290;50.158;8.658;2023-09-07T04:10:33;16.80;99.90
35111;DHT22;21290;50.158;8.658;2023-09-07T04:12:59;16.70;99.90
35111;DHT22;21290;50.158;8.658;2023-09-07T04:15:26;16.70;99.90
35111;DHT22;21290;50.158;8.658;2023-09-07T04:17:53;16.70;99.90
35111;DHT22;21290;50.158;8.658;2023-09-07T04:20:21;16.70;99.90
35111;DHT22;21290;50.158;8.658;2023-09-07T04:22:48;16.70;99.90
35111;DHT22;21290;50.158;8.658;2023-09-07T04:25:15;16.70;99.90
35111;DHT22;21290;50.158;8.658;2023-09-07T04:27:42;16.70;99.90
35111;DHT22;21290;50.158;8.658;2023-09-07T04:30:09;16.60;99.90
35111;DHT22;21290;50.158;8.658;2023-09-07T04:32:36;16.50;99.90
35111;DHT22;21290;50.158;8.658;2023-09-07T04:35:03;16.50;99.90
35111;DHT22;21290;50.158;8.658;2023-09-07T04:37:30;16.60;99.90
35111;DHT22;21290;50.158;8.658;2023-09-07T04:39:57;16.50;99.90
35111;DHT22;21290;50.158;8.658;2023-09-07T04:42:23;16.50;99.90
35111;DHT22;21290;50.158;8.658;2023-09-07T04:44:50;16.50;99.90
35111;DHT22;21290;50.158;8.658;2023-09-07T04:47:16;16.50;99.90
35111;DHT22;21290;50.158;8.658;2023-09-07T04:49:48;16.50;99.90
35111;DHT22;21290;50.158;8.658;2023-09-07T04:52:16;16.40;99.90
35111;DHT22;21290;50.158;8.658;2023-09-07T04:54:43;16.40;99.90
35111;DHT22;21290;50.158;8.658;2023-09-07T04:57:10;16.50;99.90
35111;DHT22;21290;50.158;8.658;2023-09-07T04:59:37;16.40;99.90
35111;DHT22;21290;50.158;8.658;2023-09-07T05:02:03;16.50;99.90
35111;DHT22;21290;50.158;8.658;2023-09-07T05:04:30;16.50;99.90
35111;DHT22;21290;50.158;8.658;2023-09-07T05:06:57;16.50;99.90
35111;DHT22;21290;50.158;8.658;2023-09-07T05:09:24;16.70;99.90
35111;DHT22;21290;50.158;8.658;2023-09-07T05:11:51;16.60;99.90
35111;DHT22;21290;50.158;8.658;2023-09-07T05:14:19;16.70;99.90
35111;DHT22;21290;50.158;8.658;2023-09-07T05:16:45;16.70;99.90
35111;DHT22;21290;50.158;8.658;2023-09-07T05:19:13;16.70;99.90
35111;DHT22;21290;50.158;8.658;2023-09-07T05:21:40;16.60;99.90
35111;DHT22;21290;50.158;8.658;2023-09-07T05:24:07;16.70;99.90
35111;DHT22;21290;50.158;8.658;2023-09-07T05:26:33;16.70;99.90
35111;DHT22;21290;50.158;8.658;2023-09-07T05:29:00;16.70;99.90
35111;DHT22;21290;50.158;8.658;2023-09-07T05:31:27;16.70;99.90
35111;DHT22;21290;50.158;8.658;2023-09-07T05:33:53;16.70;99.90
35111;DHT22;21290;50.158;8.658;2023-09-07T05:36:20;16.90;99.90
35111;DHT22;21290;50.158;8.658;2023-09-07T05:38:47;16.90;99.90
35111;DHT22;21290;50.158;8.658;2023-09-07T05:41:13;16.90;99.90
35111;DHT22;21290;50.158;8.658;2023-09-07T05:43:40;16.80;99.90
35111;DHT22;21290;50.158;8.658;2023-09-07T05:46:07;16.80;99.90
35111;DHT22;21290;50.158;8.658;2023-09-07T05:48:34;16.90;99.90
35111;DHT22;21290;50.158;8.658;2023-09-07T05:51:00;17.00;99.90
35111;DHT22;21290;50.158;8.658;2023-09-07T05:53:27;17.20;99.90
35111;DHT22;21290;50.158;8.658;2023-09-07T05:55:54;17.30;99.90
35111;DHT22;21290;50.158;8.658;2023-09-07T05:58:20;17.50;99.90
35111;DHT22;21290;50.158;8.658;2023-09-07T06:00:47;17.60;99.90
35111;DHT22;21290;50.158;8.658;2023-09-07T06:03:14;17.70;99.90
35111;DHT22;21290;50.158;8.658;2023-09-07T06:05:41;17.80;99.90
35111;DHT22;21290;50.158;8.658;2023-09-07T06:08:08;17.90;99.90
35111;DHT22;21290;50.158;8.658;2023-09-07T06:10:35;17.90;99.90
35111;DHT22;21290;50.158;8.658;2023-09-07T06:13:01;18.10;99.90
35111;DHT22;21290;50.158;8.658;2023-09-07T06:15:30;18.20;99.90
35111;DHT22;21290;50.158;8.658;2023-09-07T06:17:57;18.40;99.90
35111;DHT22;21290;50.158;8.658;2023-09-07T06:20:24;18.40;99.90
35111;DHT22;21290;50.158;8.658;2023-09-07T06:22:51;18.60;99.90
35111;DHT22;21290;50.158;8.658;2023-09-07T06:25:18;18.70;99.90
35111;DHT22;21290;50.158;8.658;2023-09-07T06:27:45;18.90;99.90
35111;DHT22;21290;50.158;8.658;2023-09-07T06:30:11;19.00;99.90
35111;DHT22;21290;50.158;8.658;2023-09-07T06:32:38;19.20;99.90
35111;DHT22;21290;50.158;8.658;2023-09-07T06:35:07;19.30;99.90
35111;DHT22;21290;50.158;8.658;2023-09-07T06:37:34;19.50;99.90
35111;DHT22;21290;50.158;8.658;2023-09-07T06:40:00;19.70;99.90
35111;DHT22;21290;50.158;8.658;2023-09-07T06:42:27;19.90;99.90
35111;DHT22;21290;50.158;8.658;2023-09-07T06:44:54;20.10;99.90
35111;DHT22;21290;50.158;8.658;2023-09-07T06:47:20;20.20;99.90
35111;DHT22;21290;50.158;8.658;2023-09-07T06:49:47;20.30;99.90
35111;DHT22;21290;50.158;8.658;2023-09-07T06:52:14;20.50;99.90
35111;DHT22;21290;50.158;8.658;2023-09-07T06:54:42;20.60;99.90
35111;DHT22;21290;50.158;8.658;2023-09-07T06:57:08;20.70;99.90
35111;DHT22;21290;50.158;8.658;2023-09-07T06:59:35;20.90;99.90
35111;DHT22;21290;50.158;8.658;2023-09-07T07:02:02;21.20;99.90
35111;DHT22;21290;50.158;8.658;2023-09-07T07:04:31;21.40;99.90
35111;DHT22;21290;50.158;8.658;2023-09-07T07:06:58;21.50;99.90
35111;DHT22;21290;50.158;8.658;2023-09-07T07:09:27;21.80;99.90
35111;DHT22;21290;50.158;8.658;2023-09-07T07:11:55;22.10;99.90
35111;DHT22;21290;50.158;8.658;2023-09-07T07:14:21;22.40;99.90
35111;DHT22;21290;50.158;8.658;2023-09-07T07:16:48;22.60;99.90
35111;DHT22;21290;50.158;8.658;2023-09-07T07:19:15;22.90;99.90
35111;DHT22;21290;50.158;8.658;2023-09-07T07:21:41;23.20;99.90
35111;DHT22;21290;50.158;8.658;2023-09-07T07:24:08;23.40;99.90
35111;DHT22;21290;50.158;8.658;2023-09-07T07:26:35;23.80;99.90
35111;DHT22;21290;50.158;8.658;2023-09-07T07:29:02;24.00;99.90
35111;DHT22;21290;50.158;8.658;2023-09-07T07:31:29;24.30;99.90
35111;DHT22;21290;50.158;8.658;2023-09-07T07:33:56;24.50;99.90
35111;DHT22;21290;50.158;8.658;2023-09-07T07:36:23;24.80;99.90
35111;DHT22;21290;50.158;8.658;2023-09-07T07:38:49;24.80;99.90
35111;DHT22;21290;50.158;8.658;2023-09-07T07:41:16;25.10;99.90
35111;DHT22;21290;50.158;8.658;2023-09-07T07:43:43;25.20;99.90
35111;DHT22;21290;50.158;8.658;2023-09-07T07:46:09;25.50;99.90
35111;DHT22;21290;50.158;8.658;2023-09-07T07:48:36;25.70;99.90
35111;DHT22;21290;50.158;8.658;2023-09-07T07:51:04;26.00;99.90
35111;DHT22;21290;50.158;8.658;2023-09-07T07:53:34;26.40;99.90
35111;DHT22;21290;50.158;8.658;2023-09-07T07:56:01;26.80;99.90
35111;DHT22;21290;50.158;8.658;2023-09-07T07:58:30;27.10;99.90
35111;DHT22;21290;50.158;8.658;2023-09-07T08:00:56;27.30;99.90
35111;DHT22;21290;50.158;8.658;2023-09-07T08:03:25;27.80;99.20
35111;DHT22;21290;50.158;8.658;2023-09-07T08:05:52;28.50;98.40
35111;DHT22;21290;50.158;8.658;2023-09-07T08:08:19;28.60;97.00
35111;DHT22;21290;50.158;8.658;2023-09-07T08:10:45;29.10;96.60
35111;DHT22;21290;50.158;8.658;2023-09-07T08:13:12;29.50;95.80
35111;DHT22;21290;50.158;8.658;2023-09-07T08:15:40;30.20;95.10
35111;DHT22;21290;50.158;8.658;2023-09-07T08:18:07;30.60;94.00
35111;DHT22;21290;50.158;8.658;2023-09-07T08:20:36;31.60;92.50
35111;DHT22;21290;50.158;8.658;2023-09-07T08:23:03;32.80;90.70
35111;DHT22;21290;50.158;8.658;2023-09-07T08:25:34;34.70;85.80
35111;DHT22;21290;50.158;8.658;2023-09-07T08:28:01;36.10;80.30
35111;DHT22;21290;50.158;8.658;2023-09-07T08:30:32;37.80;75.00
35111;DHT22;21290;50.158;8.658;2023-09-07T08:33:00;37.60;71.20
35111;DHT22;21290;50.158;8.658;2023-09-07T08:35:29;38.60;69.10
35111;DHT22;21290;50.158;8.658;2023-09-07T08:37:57;39.60;66.40
35111;DHT22;21290;50.158;8.658;2023-09-07T08:40:26;40.30;64.00
35111;DHT22;21290;50.158;8.658;2023-09-07T08:42:53;40.40;62.20
35111;DHT22;21290;50.158;8.658;2023-09-07T08:45:23;40.20;61.00
35111;DHT22;21290;50.158;8.658;2023-09-07T08:47:53;40.70;60.30
35111;DHT22;21290;50.158;8.658;2023-09-07T08:50:22;40.90;59.60
35111;DHT22;21290;50.158;8.658;2023-09-07T08:52:52;41.10;58.50
35111;DHT22;21290;50.158;8.658;2023-09-07T08:55:21;42.00;58.30
35111;DHT22;21290;50.158;8.658;2023-09-07T08:57:48;42.10;56.60
35111;DHT22;21290;50.158;8.658;2023-09-07T09:00:15;42.00;56.50
35111;DHT22;21290;50.158;8.658;2023-09-07T09:02:46;42.50;56.40
35111;DHT22;21290;50.158;8.658;2023-09-07T09:05:23;41.90;55.40
35111;DHT22;21290;50.158;8.658;2023-09-07T09:08:03;42.40;54.90
35111;DHT22;21290;50.158;8.658;2023-09-07T09:10:30;42.60;54.00
35111;DHT22;21290;50.158;8.658;2023-09-07T09:12:58;42.60;54.40
35111;DHT22;21290;50.158;8.658;2023-09-07T09:15:26;42.30;54.00
35111;DHT22;21290;50.158;8.658;2023-09-07T09:17:56;41.80;54.60
35111;DHT22;21290;50.158;8.658;2023-09-07T09:20:24;42.80;53.60
35111;DHT22;21290;50.158;8.658;2023-09-07T09:22:55;43.20;53.50
35111;DHT22;21290;50.158;8.658;2023-09-07T09:25:22;43.20;53.30
35111;DHT22;21290;50.158;8.658;2023-09-07T09:27:49;42.90;53.00
35111;DHT22;21290;50.158;8.658;2023-09-07T09:30:16;43.30;52.90
35111;DHT22;21290;50.158;8.658;2023-09-07T09:32:43;42.80;52.70
35111;DHT22;21290;50.158;8.658;2023-09-07T09:35:10;43.60;52.40
35111;DHT22;21290;50.158;8.658;2023-09-07T09:37:47;43.40;52.70
35111;DHT22;21290;50.158;8.658;2023-09-07T09:40:15;43.80;52.50
35111;DHT22;21290;50.158;8.658;2023-09-07T09:42:44;44.60;51.90
35111;DHT22;21290;50.158;8.658;2023-09-07T09:45:11;44.40;50.20
35111;DHT22;21290;50.158;8.658;2023-09-07T09:47:39;44.20;51.00
35111;DHT22;21290;50.158;8.658;2023-09-07T09:50:07;44.60;51.10
35111;DHT22;21290;50.158;8.658;2023-09-07T09:52:35;44.90;51.00
35111;DHT22;21290;50.158;8.658;2023-09-07T09:55:07;45.20;50.60
35111;DHT22;21290;50.158;8.658;2023-09-07T09:57:35;44.90;49.40
35111;DHT22;21290;50.158;8.658;2023-09-07T10:00:03;45.20;50.50
35111;DHT22;21290;50.158;8.658;2023-09-07T10:02:51;44.90;49.90
35111;DHT22;21290;50.158;8.658;2023-09-07T10:05:21;44.80;48.60
35111;DHT22;21290;50.158;8.658;2023-09-07T10:07:52;44.60;49.80
35111;DHT22;21290;50.158;8.658;2023-09-07T10:10:19;45.10;49.70
35111;DHT22;21290;50.158;8.658;2023-09-07T10:12:55;45.60;49.70
35111;DHT22;21290;50.158;8.658;2023-09-07T10:15:26;46.20;48.90
35111;DHT22;21290;50.158;8.658;2023-09-07T10:18:12;46.20;47.70
35111;DHT22;21290;50.158;8.658;2023-09-07T10:23:19;46.70;47.50
35111;DHT22;21290;50.158;8.658;2023-09-07T10:25:50;46.30;47.30
35111;DHT22;21290;50.158;8.658;2023-09-07T10:28:22;45.90;47.80
35111;DHT22;21290;50.158;8.658;2023-09-07T10:31:04;46.30;47.80
35111;DHT22;21290;50.158;8.658;2023-09-07T10:33:35;46.50;47.60
35111;DHT22;21290;50.158;8.658;2023-09-07T10:36:03;46.10;47.30
35111;DHT22;21290;50.158;8.658;2023-09-07T10:38:35;46.50;47.00
35111;DHT22;21290;50.158;8.658;2023-09-07T10:41:03;46.10;47.50
35111;DHT22;21290;50.158;8.658;2023-09-07T10:43:32;46.50;47.20
35111;DHT22;21290;50.158;8.658;2023-09-07T10:46:00;47.10;47.00
35111;DHT22;21290;50.158;8.658;2023-09-07T10:48:31;47.30;46.50
35111;DHT22;21290;50.158;8.658;2023-09-07T10:50:58;47.20;46.60
35111;DHT22;21290;50.158;8.658;2023-09-07T10:53:29;46.50;46.50
35111;DHT22;21290;50.158;8.658;2023-09-07T10:56:04;46.40;47.00
35111;DHT22;21290;50.158;8.658;2023-09-07T10:58:33;45.40;46.10
35111;DHT22;21290;50.158;8.658;2023-09-07T11:01:01;45.60;47.30
35111;DHT22;21290;50.158;8.658;2023-09-07T11:03:30;45.80;47.10
35111;DHT22;21290;50.158;8.658;2023-09-07T11:06:04;46.00;47.00
35111;DHT22;21290;50.158;8.658;2023-09-07T11:08:32;45.20;47.00
35111;DHT22;21290;50.158;8.658;2023-09-07T11:11:03;45.70;47.10
35111;DHT22;21290;50.158;8.658;2023-09-07T11:13:29;46.10;46.60
35111;DHT22;21290;50.158;8.658;2023-09-07T11:15:58;45.10;45.80
35111;DHT22;21290;50.158;8.658;2023-09-07T11:18:26;45.80;46.50
35111;DHT22;21290;50.158;8.658;2023-09-07T11:20:53;45.80;45.80
35111;DHT22;21290;50.158;8.658;2023-09-07T11:23:20;45.80;46.30
35111;DHT22;21290;50.158;8.658;2023-09-07T11:25:48;44.70;44.90
35111;DHT22;21290;50.158;8.658;2023-09-07T11:28:19;44.80;44.90
35111;DHT22;21290;50.158;8.658;2023-09-07T11:30:52;44.50;46.80
35111;DHT22;21290;50.158;8.658;2023-09-07T11:33:24;44.10;46.80
35111;DHT22;21290;50.158;8.658;2023-09-07T11:35:52;43.50;47.20
35111;DHT22;21290;50.158;8.658;2023-09-07T11:38:21;43.70;47.90
35111;DHT22;21290;50.158;8.658;2023-09-07T11:40:48;43.90;46.90
35111;DHT22;21290;50.158;8.658;2023-09-07T11:43:16;43.90;47.30
35111;DHT22;21290;50.158;8.658;2023-09-07T11:45:44;44.10;46.90
35111;DHT22;21290;50.158;8.658;2023-09-07T11:48:11;43.60;47.10
35111;DHT22;21290;50.158;8.658;2023-09-07T11:50:39;43.00;47.90
35111;DHT22;21290;50.158;8.658;2023-09-07T11:53:06;41.80;48.30
35111;DHT22;21290;50.158;8.658;2023-09-07T11:55:33;40.50;49.90
35111;DHT22;21290;50.158;8.658;2023-09-07T11:58:04;39.40;51.40
35111;DHT22;21290;50.158;8.658;2023-09-07T12:00:31;38.20;51.60
35111;DHT22;21290;50.158;8.658;2023-09-07T12:02:59;36.90;52.70
35111;DHT22;21290;50.158;8.658;2023-09-07T12:05:26;36.00;53.40
35111;DHT22;21290;50.158;8.658;2023-09-07T12:07:52;35.10;55.50
35111;DHT22;21290;50.158;8.658;2023-09-07T12:10:19;34.20;56.10
35111;DHT22;21290;50.158;8.658;2023-09-07T12:12:46;33.60;56.80
35111;DHT22;21290;50.158;8.658;2023-09-07T12:15:13;33.40;59.20
35111;DHT22;21290;50.158;8.658;2023-09-07T12:17:40;33.20;59.10
35111;DHT22;21290;50.158;8.658;2023-09-07T12:20:07;33.00;58.30
35111;DHT22;21290;50.158;8.658;2023-09-07T12:22:38;32.70;58.90
35111;DHT22;21290;50.158;8.658;2023-09-07T12:25:05;32.80;59.30
35111;DHT22;21290;50.158;8.658;2023-09-07T12:27:43;32.60;59.00
35111;DHT22;21290;50.158;8.658;2023-09-07T12:30:21;32.30;59.70
35111;DHT22;21290;50.158;8.658;2023-09-07T12:32:51;32.20;60.30
35111;DHT22;21290;50.158;8.658;2023-09-07T12:35:18;32.10;61.30
35111;DHT22;21290;50.158;8.658;2023-09-07T12:37:46;32.10;60.20
35111;DHT22;21290;50.158;8.658;2023-09-07T12:40:13;31.90;58.90
35111;DHT22;21290;50.158;8.658;2023-09-07T12:42:45;31.80;60.40
35111;DHT22;21290;50.158;8.658;2023-09-07T12:45:12;31.50;59.10
35111;DHT22;21290;50.158;8.658;2023-09-07T12:47:41;31.40;60.90
35111;DHT22;21290;50.158;8.658;2023-09-07T12:50:08;31.50;61.20
35111;DHT22;21290;50.158;8.658;2023-09-07T12:52:35;31.40;59.90
35111;DHT22;21290;50.158;8.658;2023-09-07T12:55:04;31.30;60.80
35111;DHT22;21290;50.158;8.658;2023-09-07T12:57:31;31.10;61.30
35111;DHT22;21290;50.158;8.658;2023-09-07T12:59:58;31.20;62.70
35111;DHT22;21290;50.158;8.658;2023-09-07T13:02:25;31.10;61.30
35111;DHT22;21290;50.158;8.658;2023-09-07T13:04:56;31.20;62.70
35111;DHT22;21290;50.158;8.658;2023-09-07T13:07:23;31.30;61.80
35111;DHT22;21290;50.158;8.658;2023-09-07T13:09:49;31.40;60.70
35111;DHT22;21290;50.158;8.658;2023-09-07T13:12:16;31.40;60.80
35111;DHT22;21290;50.158;8.658;2023-09-07T13:14:43;31.50;61.60
35111;DHT22;21290;50.158;8.658;2023-09-07T13:17:13;31.50;60.70
35111;DHT22;21290;50.158;8.658;2023-09-07T13:19:43;31.30;59.80
35111;DHT22;21290;50.158;8.658;2023-09-07T13:22:10;31.30;61.40
35111;DHT22;21290;50.158;8.658;2023-09-07T13:24:37;31.30;61.80
35111;DHT22;21290;50.158;8.658;2023-09-07T13:27:04;31.20;62.70
35111;DHT22;21290;50.158;8.658;2023-09-07T13:29:31;31.30;62.70
35111;DHT22;21290;50.158;8.658;2023-09-07T13:31:59;31.30;62.90
35111;DHT22;21290;50.158;8.658;2023-09-07T13:34:26;31.30;61.70
35111;DHT22;21290;50.158;8.658;2023-09-07T13:36:53;31.20;61.90
35111;DHT22;21290;50.158;8.658;2023-09-07T13:39:21;31.10;61.70
35111;DHT22;21290;50.158;8.658;2023-09-07T13:41:48;31.20;62.50
35111;DHT22;21290;50.158;8.658;2023-09-07T13:44:15;31.10;62.00
35111;DHT22;21290;50.158;8.658;2023-09-07T13:46:43;31.10;61.90
35111;DHT22;21290;50.158;8.658;2023-09-07T13:49:11;31.00;61.00
35111;DHT22;21290;50.158;8.658;2023-09-07T13:51:40;31.10;63.60
35111;DHT22;21290;50.158;8.658;2023-09-07T13:54:08;31.10;62.80
35111;DHT22;21290;50.158;8.658;2023-09-07T13:56:36;31.10;62.60
35111;DHT22;21290;50.158;8.658;2023-09-07T13:59:03;31.00;62.70
35111;DHT22;21290;50.158;8.658;2023-09-07T14:01:30;30.80;61.90
35111;DHT22;21290;50.158;8.658;2023-09-07T14:03:58;30.80;62.70
35111;DHT22;21290;50.158;8.658;2023-09-07T14:06:25;30.70;62.30
35111;DHT22;21290;50.158;8.658;2023-09-07T14:08:52;30.80;63.60
35111;DHT22;21290;50.158;8.658;2023-09-07T14:11:19;30.70;62.50
35111;DHT22;21290;50.158;8.658;2023-09-07T14:13:47;30.60;63.70
35111;DHT22;21290;50.158;8.658;2023-09-07T14:16:14;30.60;63.70
35111;DHT22;21290;50.158;8.658;2023-09-07T14:18:41;30.60;62.90
35111;DHT22;21290;50.158;8.658;2023-09-07T14:21:08;30.60;63.50
35111;DHT22;21290;50.158;8.658;2023-09-07T14:23:35;30.40;63.40
35111;DHT22;21290;50.158;8.658;2023-09-07T14:26:02;30.40;65.20
35111;DHT22;21290;50.158;8.658;2023-09-07T14:28:29;30.40;63.90
35111;DHT22;21290;50.158;8.658;2023-09-07T14:30:56;30.30;63.10
35111;DHT22;21290;50.158;8.658;2023-09-07T14:33:25;30.30;64.40
35111;DHT22;21290;50.158;8.658;2023-09-07T14:35:52;30.30;65.00
35111;DHT22;21290;50.158;8.658;2023-09-07T14:38:21;30.30;65.30
35111;DHT22;21290;50.158;8.658;2023-09-07T14:40:49;30.30;65.60
35111;DHT22;21290;50.158;8.658;2023-09-07T14:43:17;30.20;65.00
35111;DHT22;21290;50.158;8.658;2023-09-07T14:45:44;30.20;65.60
35111;DHT22;21290;50.158;8.658;2023-09-07T14:48:10;30.20;65.70
35111;DHT22;21290;50.158;8.658;2023-09-07T14:50:37;30.30;66.50
35111;DHT22;21290;50.158;8.658;2023-09-07T14:53:04;30.30;65.50
35111;DHT22;21290;50.158;8.658;2023-09-07T14:55:31;30.30;65.50
35111;DHT22;21290;50.158;8.658;2023-09-07T14:57:58;30.30;66.10
35111;DHT22;21290;50.158;8.658;2023-09-07T15:00:25;30.30;66.30
35111;DHT22;21290;50.158;8.658;2023-09-07T15:02:53;30.30;66.60
35111;DHT22;21290;50.158;8.658;2023-09-07T15:05:20;30.30;66.60
35111;DHT22;21290;50.158;8.658;2023-09-07T15:07:47;30.30;66.60
35111;DHT22;21290;50.158;8.658;2023-09-07T15:10:14;30.30;66.10
35111;DHT22;21290;50.158;8.658;2023-09-07T15:12:41;30.30;66.90
35111;DHT22;21290;50.158;8.658;2023-09-07T15:15:08;30.20;67.50
35111;DHT22;21290;50.158;8.658;2023-09-07T15:17:38;30.20;66.60
35111;DHT22;21290;50.158;8.658;2023-09-07T15:20:06;30.10;65.90
35111;DHT22;21290;50.158;8.658;2023-09-07T15:22:33;30.10;66.70
35111;DHT22;21290;50.158;8.658;2023-09-07T15:25:00;30.00;65.90
35111;DHT22;21290;50.158;8.658;2023-09-07T15:27:27;30.00;66.90
35111;DHT22;21290;50.158;8.658;2023-09-07T15:29:54;29.90;66.10
35111;DHT22;21290;50.158;8.658;2023-09-07T15:32:20;29.90;66.90
35111;DHT22;21290;50.158;8.658;2023-09-07T15:34:47;29.90;66.70
35111;DHT22;21290;50.158;8.658;2023-09-07T15:37:15;29.90;67.70